sensor_id;sensor_type;location;lat;lon;timestamp;temperature;humidity
11569;DHT22;5840;46.894;15.542;2024-03-06T00:06:48;8.30;99.90
11569;DHT22;5840;46.894;15.542;2024-03-06T00:09:17;8.40;99.90
11569;DHT22;5840;46.894;15.542;2024-03-06T00:11:44;8.40;99.90
11569;DHT22;5840;46.894;15.542;2024-03-06T00:14:10;8.40;99.90
11569;DHT22;5840;46.894;15.542;2024-03-06T00:16:37;8.40;99.90
11569;DHT22;5840;46.894;15.542;2024-03-06T00:21:31;8.40;99.90
11569;DHT22;5840;46.894;15.542;2024-03-06T00:23:58;8.40;99.90
11569;DHT22;5840;46.894;15.542;2024-03-06T00:33:14;8.30;99.90
11569;DHT22;5840;46.894;15.542;2024-03-06T00:35:40;8.20;99.90
11569;DHT22;5840;46.894;15.542;2024-03-06T00:38:07;8.10;99.90
11569;DHT22;5840;46.894;15.542;2024-03-06T00:40:33;8.10;99.90
11569;DHT22;5840;46.894;15.542;2024-03-06T00:42:59;8.00;99.90
11569;DHT22;5840;46.894;15.542;2024-03-06T00:45:25;7.90;99.90
11569;DHT22;5840;46.894;15.542;2024-03-06T00:47:51;7.90;99.90
11569;DHT22;5840;46.894;15.542;2024-03-06T00:50:18;7.90;99.90
11569;DHT22;5840;46.894;15.542;2024-03-06T01:00:17;7.90;99.90
11569;DHT22;5840;46.894;15.542;2024-03-06T01:02:43;7.80;99.90
11569;DHT22;5840;46.894;15.542;2024-03-06T01:05:09;7.80;99.90
11569;DHT22;5840;46.894;15.542;2024-03-06T01:07:37;7.70;99.90
11569;DHT22;5840;46.894;15.542;2024-03-06T01:10:05;7.70;99.90
11569;DHT22;5840;46.894;15.542;2024-03-06T01:12:32;7.70;99.90
11569;DHT22;5840;46.894;15.542;2024-03-06T01:14:58;7.70;99.90
11569;DHT22;5840;46.894;15.542;2024-03-06T01:17:25;7.70;99.90
11569;DHT22;5840;46.894;15.542;2024-03-06T01:24:55;7.70;99.90
11569;DHT22;5840;46.894;15.542;2024-03-06T01:27:21;7.70;99.90
11569;DHT22;5840;46.894;15.542;2024-03-06T01:29:47;7.70;99.90
11569;DHT22;5840;46.894;15.542;2024-03-06T01:32:13;7.60;99.90
11569;DHT22;5840;46.894;15.542;2024-03-06T01:34:39;7.60;99.90
11569;DHT22;5840;46.894;15.542;2024-03-06T01:37:05;7.60;99.90
11569;DHT22;5840;46.894;15.542;2024-03-06T01:39:32;7.60;99.90
11569;DHT22;5840;46.894;15.542;2024-03-06T01:41:59;7.60;99.90
11569;DHT22;5840;46.894;15.542;2024-03-06T01:51:52;7.70;99.90
11569;DHT22;5840;46.894;15.542;2024-03-06T01:54:19;7.70;99.90
11569;DHT22;5840;46.894;15.542;2024-03-06T01:56:47;7.70;99.90
11569;DHT22;5840;46.894;15.542;2024-03-06T01:59:15;7.70;99.90
11569;DHT22;5840;46.894;15.542;2024-03-06T02:01:41;7.70;99.90
11569;DHT22;5840;46.894;15.542;2024-03-06T02:04:08;7.60;99.90
11569;DHT22;5840;46.894;15.542;2024-03-06T02:06:35;7.60;99.90
11569;DHT22;5840;46.894;15.542;2024-03-06T02:09:02;7.50;99.90
11569;DHT22;5840;46.894;15.542;2024-03-06T02:16:31;7.50;99.90
11569;DHT22;5840;46.894;15.542;2024-03-06T02:18:58;7.40;99.90
11569;DHT22;5840;46.894;15.542;2024-03-06T02:21:25;7.40;99.90
11569;DHT22;5840;46.894;15.542;2024-03-06T02:23:52;7.40;99.90
11569;DHT22;5840;46.894;15.542;2024-03-06T02:26:18;7.40;99.90
11569;DHT22;5840;46.894;15.542;2024-03-06T02:28:47;7.40;99.90
11569;DHT22;5840;46.894;15.542;2024-03-06T02:31:13;7.40;99.90
11569;DHT22;5840;46.894;15.542;2024-03-06T02:33:40;7.40;99.90
11569;DHT22;5840;46.894;15.542;2024-03-06T02:43:35;7.30;99.90
11569;DHT22;5840;46.894;15.542;2024-03-06T02:46:01;7.10;99.90
11569;DHT22;5840;46.894;15.542;2024-03-06T02:48:27;7.10;99.90
11569;DHT22;5840;46.894;15.542;2024-03-06T02:50:53;7.10;99.90
11569;DHT22;5840;46.894;15.542;2024-03-06T02:53:20;7.00;99.90
11569;DHT22;5840;46.894;15.542;2024-03-06T02:55:46;6.90;99.90
11569;DHT22;5840;46.894;15.542;2024-03-06T02:58:12;6.80;99.90
11569;DHT22;5840;46.894;15.542;2024-03-06T03:00:40;6.70;99.90
11569;DHT22;5840;46.894;15.542;2024-03-06T03:10:31;6.60;99.90
11569;DHT22;5840;46.894;15.542;2024-03-06T03:12:57;6.60;99.90
11569;DHT22;5840;46.894;15.542;2024-03-06T03:15:23;6.70;99.90
11569;DHT22;5840;46.894;15.542;2024-03-06T03:17:49;6.70;99.90
11569;DHT22;5840;46.894;15.542;2024-03-06T03:20:15;6.70;99.90
11569;DHT22;5840;46.894;15.542;2024-03-06T03:22:43;6.70;99.90
11569;DHT22;5840;46.894;15.542;2024-03-06T03:25:09;6.60;99.90
11569;DHT22;5840;46.894;15.542;2024-03-06T03:27:38;6.50;99.90
11569;DHT22;5840;46.894;15.542;2024-03-06T03:37:34;6.40;99.90
11569;DHT22;5840;46.894;15.542;2024-03-06T03:40:00;6.40;99.90
11569;DHT22;5840;46.894;15.542;2024-03-06T03:42:26;6.40;99.90
11569;DHT22;5840;46.894;15.542;2024-03-06T03:44:52;6.30;99.90
11569;DHT22;5840;46.894;15.542;2024-03-06T03:47:19;6.30;99.90
11569;DHT22;5840;46.894;15.542;2024-03-06T03:49:45;6.30;99.90
11569;DHT22;5840;46.894;15.542;2024-03-06T03:52:12;6.30;99.90
11569;DHT22;5840;46.894;15.542;2024-03-06T03:54:40;6.20;99.90
11569;DHT22;5840;46.894;15.542;2024-03-06T04:04:30;6.30;99.90
11569;DHT22;5840;46.894;15.542;2024-03-06T04:06:56;6.20;99.90
11569;DHT22;5840;46.894;15.542;2024-03-06T04:09:25;6.20;99.90
11569;DHT22;5840;46.894;15.542;2024-03-06T04:11:51;6.20;99.90
11569;DHT22;5840;46.894;15.542;2024-03-06T04:14:17;6.20;99.90
11569;DHT22;5840;46.894;15.542;2024-03-06T04:16:45;6.20;99.90
11569;DHT22;5840;46.894;15.542;2024-03-06T04:19:11;6.20;99.90
11569;DHT22;5840;46.894;15.542;2024-03-06T04:21:41;6.20;99.90
11569;DHT22;5840;46.894;15.542;2024-03-06T04:29:10;6.20;99.90
11569;DHT22;5840;46.894;15.542;2024-03-06T04:31:37;6.30;99.90
11569;DHT22;5840;46.894;15.542;2024-03-06T04:34:03;6.20;99.90
11569;DHT22;5840;46.894;15.542;2024-03-06T04:36:29;6.30;99.90
11569;DHT22;5840;46.894;15.542;2024-03-06T04:38:55;6.30;99.90
11569;DHT22;5840;46.894;15.542;2024-03-06T04:41:21;6.30;99.90
11569;DHT22;5840;46.894;15.542;2024-03-06T04:43:49;6.30;99.90
11569;DHT22;5840;46.894;15.542;2024-03-06T04:46:16;6.30;99.90
11569;DHT22;5840;46.894;15.542;2024-03-06T04:53:46;6.20;99.90
11569;DHT22;5840;46.894;15.542;2024-03-06T04:56:12;6.20;99.90
11569;DHT22;5840;46.894;15.542;2024-03-06T04:58:39;6.20;99.90
11569;DHT22;5840;46.894;15.542;2024-03-06T05:01:06;6.20;99.90
11569;DHT22;5840;46.894;15.542;2024-03-06T05:03:32;6.20;99.90
11569;DHT22;5840;46.894;15.542;2024-03-06T05:05:58;6.20;99.90
11569;DHT22;5840;46.894;15.542;2024-03-06T05:08:24;6.20;99.90
11569;DHT22;5840;46.894;15.542;2024-03-06T05:10:51;6.20;99.90
11569;DHT22;5840;46.894;15.542;2024-03-06T05:20:46;6.10;99.90
11569;DHT22;5840;46.894;15.542;2024-03-06T05:23:12;6.20;99.90
11569;DHT22;5840;46.894;15.542;2024-03-06T05:25:40;6.20;99.90
11569;DHT22;5840;46.894;15.542;2024-03-06T05:28:06;6.30;99.90
11569;DHT22;5840;46.894;15.542;2024-03-06T05:30:32;6.30;99.90
11569;DHT22;5840;46.894;15.542;2024-03-06T05:32:59;6.30;99.90
11569;DHT22;5840;46.894;15.542;2024-03-06T05:35:25;6.30;99.90
11569;DHT22;5840;46.894;15.542;2024-03-06T05:37:52;6.30;99.90
11569;DHT22;5840;46.894;15.542;2024-03-06T05:45:22;6.40;99.90
11569;DHT22;5840;46.894;15.542;2024-03-06T05:47:48;6.40;99.90
11569;DHT22;5840;46.894;15.542;2024-03-06T05:50:15;6.40;99.90
11569;DHT22;5840;46.894;15.542;2024-03-06T05:52:41;6.40;99.90
11569;DHT22;5840;46.894;15.542;2024-03-06T05:55:08;6.40;99.90
11569;DHT22;5840;46.894;15.542;2024-03-06T05:57:35;6.40;99.90
11569;DHT22;5840;46.894;15.542;2024-03-06T06:00:02;6.40;99.90
11569;DHT22;5840;46.894;15.542;2024-03-06T06:02:30;6.40;99.90
11569;DHT22;5840;46.894;15.542;2024-03-06T06:12:25;6.50;99.90
11569;DHT22;5840;46.894;15.542;2024-03-06T06:14:51;6.60;99.90
11569;DHT22;5840;46.894;15.542;2024-03-06T06:17:17;6.60;99.90
11569;DHT22;5840;46.894;15.542;2024-03-06T06:19:43;6.60;99.90
11569;DHT22;5840;46.894;15.542;2024-03-06T06:22:09;6.60;99.90
11569;DHT22;5840;46.894;15.542;2024-03-06T06:24:37;6.60;99.90
11569;DHT22;5840;46.894;15.542;2024-03-06T06:27:04;6.60;99.90
11569;DHT22;5840;46.894;15.542;2024-03-06T06:29:31;6.60;99.90
11569;DHT22;5840;46.894;15.542;2024-03-06T06:37:00;6.60;99.90
11569;DHT22;5840;46.894;15.542;2024-03-06T06:39:26;6.60;99.90
11569;DHT22;5840;46.894;15.542;2024-03-06T06:41:53;6.60;99.90
11569;DHT22;5840;46.894;15.542;2024-03-06T06:44:19;6.70;99.90
11569;DHT22;5840;46.894;15.542;2024-03-06T06:46:45;6.70;99.90
11569;DHT22;5840;46.894;15.542;2024-03-06T06:49:11;6.70;99.90
11569;DHT22;5840;46.894;15.542;2024-03-06T06:51:37;6.80;99.90
11569;DHT22;5840;46.894;15.542;2024-03-06T06:54:04;6.80;99.90
11569;DHT22;5840;46.894;15.542;2024-03-06T07:01:34;6.90;99.90
11569;DHT22;5840;46.894;15.542;2024-03-06T07:04:01;6.90;99.90
11569;DHT22;5840;46.894;15.542;2024-03-06T07:06:28;6.90;99.90
11569;DHT22;5840;46.894;15.542;2024-03-06T07:08:54;6.90;99.90
11569;DHT22;5840;46.894;15.542;2024-03-06T07:11:20;6.90;99.90
11569;DHT22;5840;46.894;15.542;2024-03-06T07:13:47;7.00;99.90
11569;DHT22;5840;46.894;15.542;2024-03-06T07:16:13;7.00;99.90
11569;DHT22;5840;46.894;15.542;2024-03-06T07:18:40;7.10;99.90
11569;DHT22;5840;46.894;15.542;2024-03-06T07:26:10;7.10;99.90
11569;DHT22;5840;46.894;15.542;2024-03-06T07:28:36;7.20;99.90
11569;DHT22;5840;46.894;15.542;2024-03-06T07:31:03;7.20;99.90
11569;DHT22;5840;46.894;15.542;2024-03-06T07:33:30;7.20;99.90
11569;DHT22;5840;46.894;15.542;2024-03-06T07:35:59;7.30;99.90
11569;DHT22;5840;46.894;15.542;2024-03-06T07:38:25;7.30;99.90
11569;DHT22;5840;46.894;15.542;2024-03-06T07:40:51;7.40;99.90
11569;DHT22;5840;46.894;15.542;2024-03-06T07:43:18;7.40;99.90
11569;DHT22;5840;46.894;15.542;2024-03-06T07:53:13;7.50;99.90
11569;DHT22;5840;46.894;15.542;2024-03-06T07:55:40;7.60;99.90
11569;DHT22;5840;46.894;15.542;2024-03-06T07:58:06;7.60;99.90
11569;DHT22;5840;46.894;15.542;2024-03-06T08:00:33;7.60;99.90
11569;DHT22;5840;46.894;15.542;2024-03-06T08:02:59;7.60;99.90
11569;DHT22;5840;46.894;15.542;2024-03-06T08:05:26;7.60;99.90
11569;DHT22;5840;46.894;15.542;2024-03-06T08:07:52;7.60;99.90
11569;DHT22;5840;46.894;15.542;2024-03-06T08:10:19;7.60;99.90
11569;DHT22;5840;46.894;15.542;2024-03-06T08:20:11;7.70;99.90
11569;DHT22;5840;46.894;15.542;2024-03-06T08:22:39;7.70;99.90
11569;DHT22;5840;46.894;15.542;2024-03-06T08:25:06;7.80;99.90
11569;DHT22;5840;46.894;15.542;2024-03-06T08:27:33;7.80;99.90
11569;DHT22;5840;46.894;15.542;2024-03-06T08:32:27;7.90;99.90
11569;DHT22;5840;46.894;15.542;2024-03-06T08:34:54;7.90;99.90
11569;DHT22;5840;46.894;15.542;2024-03-06T08:37:21;8.00;99.90
11569;DHT22;5840;46.894;15.542;2024-03-06T08:44:50;8.10;99.90
11569;DHT22;5840;46.894;15.542;2024-03-06T08:47:16;8.10;99.90
11569;DHT22;5840;46.894;15.542;2024-03-06T08:49:42;8.10;99.90
11569;DHT22;5840;46.894;15.542;2024-03-06T08:52:09;8.10;99.90
11569;DHT22;5840;46.894;15.542;2024-03-06T08:54:35;8.10;99.90
11569;DHT22;5840;46.894;15.542;2024-03-06T08:57:02;8.10;99.90
11569;DHT22;5840;46.894;15.542;2024-03-06T08:59:28;8.20;99.90
11569;DHT22;5840;46.894;15.542;2024-03-06T09:01:55;8.20;99.90
11569;DHT22;5840;46.894;15.542;2024-03-06T09:11:50;8.30;99.90
11569;DHT22;5840;46.894;15.542;2024-03-06T09:14:16;8.40;99.90
11569;DHT22;5840;46.894;15.542;2024-03-06T09:16:42;8.40;99.90
11569;DHT22;5840;46.894;15.542;2024-03-06T09:19:08;8.40;99.90
11569;DHT22;5840;46.894;15.542;2024-03-06T09:21:35;8.40;99.90
11569;DHT22;5840;46.894;15.542;2024-03-06T09:24:01;8.40;99.90
11569;DHT22;5840;46.894;15.542;2024-03-06T09:26:27;8.50;99.90
11569;DHT22;5840;46.894;15.542;2024-03-06T09:28:54;8.50;99.90
11569;DHT22;5840;46.894;15.542;2024-03-06T09:36:24;8.50;99.90
11569;DHT22;5840;46.894;15.542;2024-03-06T09:38:51;8.60;99.90
11569;DHT22;5840;46.894;15.542;2024-03-06T09:41:18;8.60;99.90
11569;DHT22;5840;46.894;15.542;2024-03-06T09:43:44;8.70;99.90
11569;DHT22;5840;46.894;15.542;2024-03-06T09:46:10;8.70;99.90
11569;DHT22;5840;46.894;15.542;2024-03-06T09:48:42;8.70;99.90
11569;DHT22;5840;46.894;15.542;2024-03-06T09:51:11;8.70;99.90
11569;DHT22;5840;46.894;15.542;2024-03-06T09:53:39;8.80;99.90
11569;DHT22;5840;46.894;15.542;2024-03-06T10:01:10;8.90;99.90
11569;DHT22;5840;46.894;15.542;2024-03-06T10:03:38;8.90;99.90
11569;DHT22;5840;46.894;15.542;2024-03-06T10:06:06;8.80;99.90
11569;DHT22;5840;46.894;15.542;2024-03-06T10:08:33;8.80;99.90
11569;DHT22;5840;46.894;15.542;2024-03-06T10:10:59;8.80;99.90
11569;DHT22;5840;46.894;15.542;2024-03-06T10:13:26;8.90;99.90
11569;DHT22;5840;46.894;15.542;2024-03-06T10:15:57;9.00;99.90
11569;DHT22;5840;46.894;15.542;2024-03-06T10:18:27;9.00;99.90
11569;DHT22;5840;46.894;15.542;2024-03-06T10:25:56;9.10;99.90
11569;DHT22;5840;46.894;15.542;2024-03-06T10:28:23;9.10;99.90
11569;DHT22;5840;46.894;15.542;2024-03-06T10:30:50;9.10;99.90
11569;DHT22;5840;46.894;15.542;2024-03-06T10:33:18;9.20;99.90
11569;DHT22;5840;46.894;15.542;2024-03-06T10:35:46;9.20;99.90
11569;DHT22;5840;46.894;15.542;2024-03-06T10:38:14;9.10;99.90
11569;DHT22;5840;46.894;15.542;2024-03-06T10:40:41;9.20;99.90
11569;DHT22;5840;46.894;15.542;2024-03-06T10:43:09;9.20;99.90
11569;DHT22;5840;46.894;15.542;2024-03-06T10:50:40;9.30;99.90
11569;DHT22;5840;46.894;15.542;2024-03-06T10:53:09;9.30;99.90
11569;DHT22;5840;46.894;15.542;2024-03-06T10:55:36;9.40;99.90
11569;DHT22;5840;46.894;15.542;2024-03-06T10:58:05;9.40;99.90
11569;DHT22;5840;46.894;15.542;2024-03-06T11:00:34;9.40;99.90
11569;DHT22;5840;46.894;15.542;2024-03-06T11:03:05;9.40;99.90
11569;DHT22;5840;46.894;15.542;2024-03-06T11:05:34;9.40;99.90
11569;DHT22;5840;46.894;15.542;2024-03-06T11:08:01;9.40;99.90
11569;DHT22;5840;46.894;15.542;2024-03-06T11:15:35;9.60;99.90
11569;DHT22;5840;46.894;15.542;2024-03-06T11:21:30;9.60;99.90
11569;DHT22;5840;46.894;15.542;2024-03-06T11:24:13;9.70;99.90
11569;DHT22;5840;46.894;15.542;2024-03-06T11:26:42;9.80;99.90
11569;DHT22;5840;46.894;15.542;2024-03-06T11:29:09;9.80;99.90
11569;DHT22;5840;46.894;15.542;2024-03-06T11:31:35;9.80;99.90
11569;DHT22;5840;46.894;15.542;2024-03-06T11:42:42;9.90;99.90
11569;DHT22;5840;46.894;15.542;2024-03-06T11:45:16;10.00;99.90
11569;DHT22;5840;46.894;15.542;2024-03-06T11:47:59;10.10;99.90
11569;DHT22;5840;46.894;15.542;2024-03-06T11:50:26;10.10;99.90
11569;DHT22;5840;46.894;15.542;2024-03-06T11:52:53;10.10;99.90
11569;DHT22;5840;46.894;15.542;2024-03-06T11:55:21;10.20;99.90
11569;DHT22;5840;46.894;15.542;2024-03-06T11:57:48;10.10;99.90
11569;DHT22;5840;46.894;15.542;2024-03-06T12:00:15;10.20;99.90
11569;DHT22;5840;46.894;15.542;2024-03-06T12:07:59;10.20;99.90
11569;DHT22;5840;46.894;15.542;2024-03-06T12:10:25;10.40;99.90
11569;DHT22;5840;46.894;15.542;2024-03-06T12:12:51;10.50;99.90
11569;DHT22;5840;46.894;15.542;2024-03-06T12:15:18;10.50;99.90
11569;DHT22;5840;46.894;15.542;2024-03-06T12:17:45;10.60;99.90
11569;DHT22;5840;46.894;15.542;2024-03-06T12:20:12;10.70;99.90
11569;DHT22;5840;46.894;15.542;2024-03-06T12:22:44;10.70;99.90
11569;DHT22;5840;46.894;15.542;2024-03-06T12:25:18;10.80;99.90
11569;DHT22;5840;46.894;15.542;2024-03-06T12:32:56;10.70;99.90
11569;DHT22;5840;46.894;15.542;2024-03-06T12:35:24;10.90;99.90
11569;DHT22;5840;46.894;15.542;2024-03-06T12:37:50;10.90;99.90
11569;DHT22;5840;46.894;15.542;2024-03-06T12:40:16;11.00;99.90
11569;DHT22;5840;46.894;15.542;2024-03-06T12:42:43;11.10;99.90
11569;DHT22;5840;46.894;15.542;2024-03-06T12:45:11;11.10;99.90
11569;DHT22;5840;46.894;15.542;2024-03-06T12:47:40;11.10;99.90
11569;DHT22;5840;46.894;15.542;2024-03-06T12:50:08;11.10;99.90
11569;DHT22;5840;46.894;15.542;2024-03-06T12:57:39;11.30;99.90
11569;DHT22;5840;46.894;15.542;2024-03-06T13:00:07;11.40;99.90
11569;DHT22;5840;46.894;15.542;2024-03-06T13:02:41;11.50;99.90
11569;DHT22;5840;46.894;15.542;2024-03-06T13:05:07;11.60;99.90
11569;DHT22;5840;46.894;15.542;2024-03-06T13:07:33;11.50;99.90
11569;DHT22;5840;46.894;15.542;2024-03-06T13:09:59;11.40;99.90
11569;DHT22;5840;46.894;15.542;2024-03-06T13:12:26;11.50;99.90
11569;DHT22;5840;46.894;15.542;2024-03-06T13:14:53;11.60;99.90
11569;DHT22;5840;46.894;15.542;2024-03-06T13:24:48;12.00;99.90
11569;DHT22;5840;46.894;15.542;2024-03-06T13:27:15;12.40;99.90
11569;DHT22;5840;46.894;15.542;2024-03-06T13:29:41;12.50;99.90
11569;DHT22;5840;46.894;15.542;2024-03-06T13:32:07;12.70;99.90
11569;DHT22;5840;46.894;15.542;2024-03-06T13:34:33;13.00;99.90
11569;DHT22;5840;46.894;15.542;2024-03-06T13:36:59;13.20;99.90
11569;DHT22;5840;46.894;15.542;2024-03-06T13:39:25;13.50;99.90
11569;DHT22;5840;46.894;15.542;2024-03-06T13:41:53;13.60;99.90
11569;DHT22;5840;46.894;15.542;2024-03-06T13:49:43;13.50;99.90
11569;DHT22;5840;46.894;15.542;2024-03-06T13:52:10;13.00;99.90
11569;DHT22;5840;46.894;15.542;2024-03-06T13:54:38;13.00;99.90
11569;DHT22;5840;46.894;15.542;2024-03-06T13:57:05;12.90;99.90
11569;DHT22;5840;46.894;15.542;2024-03-06T13:59:31;12.70;99.90
11569;DHT22;5840;46.894;15.542;2024-03-06T14:01:57;12.70;99.90
11569;DHT22;5840;46.894;15.542;2024-03-06T14:04:25;12.60;99.90
11569;DHT22;5840;46.894;15.542;2024-03-06T14:09:30;12.50;99.90
11569;DHT22;5840;46.894;15.542;2024-03-06T14:11:57;12.40;99.90
11569;DHT22;5840;46.894;15.542;2024-03-06T14:14:23;12.40;99.90
11569;DHT22;5840;46.894;15.542;2024-03-06T14:16:49;12.50;99.90
11569;DHT22;5840;46.894;15.542;2024-03-06T14:19:15;12.50;99.90
11569;DHT22;5840;46.894;15.542;2024-03-06T14:21:42;12.50;99.90
11569;DHT22;5840;46.894;15.542;2024-03-06T14:24:08;12.40;99.90
11569;DHT22;5840;46.894;15.542;2024-03-06T14:26:36;12.30;99.90
11569;DHT22;5840;46.894;15.542;2024-03-06T14:36:31;12.30;99.90
11569;DHT22;5840;46.894;15.542;2024-03-06T14:38:57;12.40;99.90
11569;DHT22;5840;46.894;15.542;2024-03-06T14:41:23;12.40;99.90
11569;DHT22;5840;46.894;15.542;2024-03-06T14:43:50;12.40;99.90
11569;DHT22;5840;46.894;15.542;2024-03-06T14:46:16;12.30;99.90
11569;DHT22;5840;46.894;15.542;2024-03-06T14:48:42;12.20;99.90
11569;DHT22;5840;46.894;15.542;2024-03-06T14:51:10;12.10;99.90
11569;DHT22;5840;46.894;15.542;2024-03-06T14:53:37;12.10;99.90
11569;DHT22;5840;46.894;15.542;2024-03-06T15:03:21;12.10;99.90
11569;DHT22;5840;46.894;15.542;2024-03-06T15:05:47;12.20;99.90
11569;DHT22;5840;46.894;15.542;2024-03-06T15:08:13;12.20;99.90
11569;DHT22;5840;46.894;15.542;2024-03-06T15:10:40;12.20;99.90
11569;DHT22;5840;46.894;15.542;2024-03-06T15:13:06;12.20;99.90
11569;DHT22;5840;46.894;15.542;2024-03-06T15:15:35;12.20;99.90
11569;DHT22;5840;46.894;15.542;2024-03-06T15:18:01;12.20;99.90
11569;DHT22;5840;46.894;15.542;2024-03-06T15:20:28;12.20;99.90
11569;DHT22;5840;46.894;15.542;2024-03-06T15:30:19;12.30;99.90
11569;DHT22;5840;46.894;15.542;2024-03-06T15:32:46;12.20;99.90
11569;DHT22;5840;46.894;15.542;2024-03-06T15:35:12;12.10;99.90
11569;DHT22;5840;46.894;15.542;2024-03-06T15:37:39;12.10;99.90
11569;DHT22;5840;46.894;15.542;2024-03-06T15:40:06;12.00;99.90
11569;DHT22;5840;46.894;15.542;2024-03-06T15:42:32;12.00;99.90
11569;DHT22;5840;46.894;15.542;2024-03-06T15:44:59;11.90;99.90
11569;DHT22;5840;46.894;15.542;2024-03-06T15:47:26;11.90;99.90
11569;DHT22;5840;46.894;15.542;2024-03-06T15:57:22;11.70;99.90
11569;DHT22;5840;46.894;15.542;2024-03-06T15:59:48;11.60;99.90
11569;DHT22;5840;46.894;15.542;2024-03-06T16:02:14;11.50;99.90
11569;DHT22;5840;46.894;15.542;2024-03-06T16:04:40;11.50;99.90
11569;DHT22;5840;46.894;15.542;2024-03-06T16:07:06;11.40;99.90
11569;DHT22;5840;46.894;15.542;2024-03-06T16:09:32;11.40;99.90
11569;DHT22;5840;46.894;15.542;2024-03-06T16:11:59;11.30;99.90
11569;DHT22;5840;46.894;15.542;2024-03-06T16:14:26;11.30;99.90
11569;DHT22;5840;46.894;15.542;2024-03-06T16:24:16;11.20;99.90
11569;DHT22;5840;46.894;15.542;2024-03-06T16:26:42;11.10;99.90
11569;DHT22;5840;46.894;15.542;2024-03-06T16:29:09;11.00;99.90
11569;DHT22;5840;46.894;15.542;2024-03-06T16:31:36;11.00;99.90
11569;DHT22;5840;46.894;15.542;2024-03-06T16:34:02;10.90;99.90
11569;DHT22;5840;46.894;15.542;2024-03-06T16:36:28;10.90;99.90
11569;DHT22;5840;46.894;15.542;2024-03-06T16:38:56;10.90;99.90
11569;DHT22;5840;46.894;15.542;2024-03-06T16:41:23;10.80;99.90
11569;DHT22;5840;46.894;15.542;2024-03-06T16:51:18;10.70;99.90
11569;DHT22;5840;46.894;15.542;2024-03-06T16:53:45;10.60;99.90
11569;DHT22;5840;46.894;15.542;2024-03-06T16:56:11;10.60;99.90
11569;DHT22;5840;46.894;15.542;2024-03-06T16:58:37;10.60;99.90
11569;DHT22;5840;46.894;15.542;2024-03-06T17:01:04;10.60;99.90
11569;DHT22;5840;46.894;15.542;2024-03-06T17:03:30;10.50;99.90
11569;DHT22;5840;46.894;15.542;2024-03-06T17:05:57;10.50;99.90
11569;DHT22;5840;46.894;15.542;2024-03-06T17:08:24;10.50;99.90
11569;DHT22;5840;46.894;15.542;2024-03-06T17:15:54;10.40;99.90
11569;DHT22;5840;46.894;15.542;2024-03-06T17:18:20;10.30;99.90
11569;DHT22;5840;46.894;15.542;2024-03-06T17:20:47;10.30;99.90
11569;DHT22;5840;46.894;15.542;2024-03-06T17:23:13;10.30;99.90
11569;DHT22;5840;46.894;15.542;2024-03-06T17:25:40;10.30;99.90
11569;DHT22;5840;46.894;15.542;2024-03-06T17:28:06;10.20;99.90
11569;DHT22;5840;46.894;15.542;2024-03-06T17:30:34;10.20;99.90
11569;DHT22;5840;46.894;15.542;2024-03-06T17:33:02;10.10;99.90
11569;DHT22;5840;46.894;15.542;2024-03-06T17:42:52;10.10;99.90
11569;DHT22;5840;46.894;15.542;2024-03-06T17:45:18;10.10;99.90
11569;DHT22;5840;46.894;15.542;2024-03-06T17:47:44;10.10;99.90
11569;DHT22;5840;46.894;15.542;2024-03-06T17:50:12;10.10;99.90
11569;DHT22;5840;46.894;15.542;2024-03-06T17:52:39;10.10;99.90
11569;DHT22;5840;46.894;15.542;2024-03-06T17:55:05;10.10;99.90
11569;DHT22;5840;46.894;15.542;2024-03-06T17:57:32;10.00;99.90
11569;DHT22;5840;46.894;15.542;2024-03-06T17:59:59;10.00;99.90
11569;DHT22;5840;46.894;15.542;2024-03-06T18:09:49;10.00;99.90
11569;DHT22;5840;46.894;15.542;2024-03-06T18:12:17;9.80;99.90
11569;DHT22;5840;46.894;15.542;2024-03-06T18:14:43;9.90;99.90
11569;DHT22;5840;46.894;15.542;2024-03-06T18:17:10;9.80;99.90
11569;DHT22;5840;46.894;15.542;2024-03-06T18:19:36;9.80;99.90
11569;DHT22;5840;46.894;15.542;2024-03-06T18:22:02;9.80;99.90
11569;DHT22;5840;46.894;15.542;2024-03-06T18:24:28;9.70;99.90
11569;DHT22;5840;46.894;15.542;2024-03-06T18:26:55;9.60;99.90
11569;DHT22;5840;46.894;15.542;2024-03-06T18:36:47;9.60;99.90
11569;DHT22;5840;46.894;15.542;2024-03-06T18:39:14;9.50;99.90
11569;DHT22;5840;46.894;15.542;2024-03-06T18:41:40;9.50;99.90
11569;DHT22;5840;46.894;15.542;2024-03-06T18:44:07;9.40;99.90
11569;DHT22;5840;46.894;15.542;2024-03-06T18:46:33;9.40;99.90
11569;DHT22;5840;46.894;15.542;2024-03-06T18:49:03;9.40;99.90
11569;DHT22;5840;46.894;15.542;2024-03-06T18:51:29;9.30;99.90
11569;DHT22;5840;46.894;15.542;2024-03-06T18:53:56;9.30;99.90
11569;DHT22;5840;46.894;15.542;2024-03-06T19:03:29;9.20;99.90
11569;DHT22;5840;46.894;15.542;2024-03-06T19:05:56;9.10;99.90
11569;DHT22;5840;46.894;15.542;2024-03-06T19:08:22;9.10;99.90
11569;DHT22;5840;46.894;15.542;2024-03-06T19:10:48;9.00;99.90
11569;DHT22;5840;46.894;15.542;2024-03-06T19:13:14;9.00;99.90
11569;DHT22;5840;46.894;15.542;2024-03-06T19:15:40;9.00;99.90
11569;DHT22;5840;46.894;15.542;2024-03-06T19:18:07;9.00;99.90
11569;DHT22;5840;46.894;15.542;2024-03-06T19:20:34;9.00;99.90
11569;DHT22;5840;46.894;15.542;2024-03-06T19:30:26;8.90;99.90
11569;DHT22;5840;46.894;15.542;2024-03-06T19:32:53;8.90;99.90
11569;DHT22;5840;46.894;15.542;2024-03-06T19:35:19;8.90;99.90
11569;DHT22;5840;46.894;15.542;2024-03-06T19:37:47;8.80;99.90
11569;DHT22;5840;46.894;15.542;2024-03-06T19:40:13;8.80;99.90
11569;DHT22;5840;46.894;15.542;2024-03-06T19:42:39;8.80;99.90
11569;DHT22;5840;46.894;15.542;2024-03-06T19:45:06;8.80;99.90
11569;DHT22;5840;46.894;15.542;2024-03-06T19:47:33;8.80;99.90
11569;DHT22;5840;46.894;15.542;2024-03-06T19:55:17;8.70;99.90
11569;DHT22;5840;46.894;15.542;2024-03-06T19:57:45;8.60;99.90
11569;DHT22;5840;46.894;15.542;2024-03-06T20:00:13;8.50;99.90
11569;DHT22;5840;46.894;15.542;2024-03-06T20:02:41;8.40;99.90
11569;DHT22;5840;46.894;15.542;2024-03-06T20:05:08;8.40;99.90
11569;DHT22;5840;46.894;15.542;2024-03-06T20:07:34;8.40;99.90
11569;DHT22;5840;46.894;15.542;2024-03-06T20:10:01;8.30;99.90
11569;DHT22;5840;46.894;15.542;2024-03-06T20:12:28;8.30;99.90
11569;DHT22;5840;46.894;15.542;2024-03-06T20:19:57;8.10;99.90
11569;DHT22;5840;46.894;15.542;2024-03-06T20:22:23;8.00;99.90
11569;DHT22;5840;46.894;15.542;2024-03-06T20:24:50;8.00;99.90
11569;DHT22;5840;46.894;15.542;2024-03-06T20:27:16;7.90;99.90
11569;DHT22;5840;46.894;15.542;2024-03-06T20:29:42;7.90;99.90
11569;DHT22;5840;46.894;15.542;2024-03-06T20:32:09;7.80;99.90
11569;DHT22;5840;46.894;15.542;2024-03-06T20:34:36;7.70;99.90
11569;DHT22;5840;46.894;15.542;2024-03-06T20:37:05;7.70;99.90
11569;DHT22;5840;46.894;15.542;2024-03-06T20:44:35;7.60;99.90
11569;DHT22;5840;46.894;15.542;2024-03-06T20:47:01;7.50;99.90
11569;DHT22;5840;46.894;15.542;2024-03-06T20:49:28;7.40;99.90
11569;DHT22;5840;46.894;15.542;2024-03-06T20:51:54;7.30;99.90
11569;DHT22;5840;46.894;15.542;2024-03-06T20:54:20;7.20;99.90